Aérodrome :
LOGIN :

S'inscrire | Disclaimer

   EN    FR    IT 

 










Légende :    VFR   VFR Marginal   IFR   IFR Intensif   IFR Très Intensif
Visi : 
Plafond : 
>= 8 km
>= 3000ft
5 à 8 km
1000 à 3000 ft
1500m à 5 km
500 à 1000 ft
800 à 1500m
200 à 500 ft
< 800m
< 200 ft
Symboles :   Orages  Brouillard  Fortes neiges  Fortes précipitations  Vent > 20 kt
SIGMETs :   Divers  Orages  Givrage  Turbulence  Onde Orograph.  Cendres Volcan.







- Altitude de l'aérodrome : 3006 ft
- Code IATA : LEN


LELN - Leon

DERNIER METAR :
  • 210330Z AUTO 36003KT 330V030 7000 NCD 01/M08 Q1028

METARs EXPIRÉS :
  • 210300Z AUTO 02003KT 340V050 9000 NSC 00/M08 Q1028
  • 210230Z AUTO 00000KT 9000 NCD M02/M07 Q1028
  • 210200Z AUTO VRB01KT 8000 NSC M04/M07 Q1028
  • 210130Z AUTO 24004KT 200V280 9000 NCD M01/M06 Q1028
  • 210100Z AUTO 29004KT 260V320 9000 NCD M04/M07 Q1028

TAF TAF LELN
Valide du 21 à 03h jusqu'au 21 à 12h UTC


210200Z 2103/2112 VRB05KT CAVOK
BECMG 2110/2112 09010KT
Pas de NOTAMs connus pour ce terrain.



MET'MAP, la Météo Aéronautique d'un coup d'oeil ! - Copyright ORBIFLY Décembre 2007 - Disclaimer

ORBIFLY MET'MAP TEAM :

Programmation & Développement : Alexandra Zaïnal
Conception & Développement : Baudouin d'Aumeries
Co-Programmation & Développement : Marc-Olivier Méhu
Soutien technique & logistique : Manuel Goepfert

Contact : metmap@orbifly.com




SOURCES & CREDITS :

   NOAA